createdAt,value
2024-03-13T00:06:02.142Z,47.40
2024-03-13T00:16:02.198Z,14.20
2024-03-13T00:26:02.171Z,13.30
2024-03-13T00:36:02.186Z,14.10
2024-03-13T00:46:02.224Z,12.60
2024-03-13T00:56:02.171Z,11.60
2024-03-13T01:06:02.169Z,11.50
2024-03-13T01:16:02.262Z,12.60
2024-03-13T01:26:02.177Z,17.50
2024-03-13T01:36:02.191Z,22.00
2024-03-13T01:46:02.245Z,20.10
2024-03-13T01:56:02.223Z,22.40
2024-03-13T02:06:02.260Z,22.80
2024-03-13T02:16:02.207Z,23.30
2024-03-13T02:26:02.218Z,22.40
2024-03-13T02:36:02.181Z,23.60
2024-03-13T02:46:02.218Z,22.10
2024-03-13T02:56:02.190Z,30.60
2024-03-13T03:06:02.222Z,25.30
2024-03-13T03:16:02.283Z,28.00
2024-03-13T03:26:02.224Z,22.20
2024-03-13T03:36:02.368Z,43.50
2024-03-13T03:46:02.353Z,22.40
2024-03-13T03:56:02.233Z,21.80
2024-03-13T04:06:02.259Z,29.10
2024-03-13T04:16:02.272Z,20.70
2024-03-13T04:26:02.292Z,24.20
2024-03-13T04:36:02.252Z,18.70
2024-03-13T04:46:02.289Z,21.30
2024-03-13T04:56:02.347Z,20.60
2024-03-13T05:16:02.259Z,21.70
2024-03-13T05:26:02.270Z,21.70
2024-03-13T05:36:02.341Z,20.90
2024-03-13T05:46:02.316Z,20.70
2024-03-13T05:56:02.268Z,20.80
2024-03-13T06:06:02.253Z,18.10
2024-03-13T06:16:02.302Z,11.70
2024-03-13T06:26:02.277Z,10.80
2024-03-13T06:36:02.378Z,10.70
2024-03-13T06:46:02.305Z,9.80
2024-03-13T06:56:02.329Z,9.60
2024-03-13T07:06:02.292Z,10.10
2024-03-13T07:16:02.325Z,10.90
2024-03-13T07:26:02.325Z,10.50
2024-03-13T07:36:02.351Z,11.10
2024-03-13T07:46:02.387Z,9.90
2024-03-13T07:56:03.595Z,10.60
2024-03-13T09:16:02.359Z,8.90
2024-03-13T09:26:03.478Z,7.60
2024-03-13T09:36:02.494Z,8.50
2024-03-13T09:46:02.690Z,8.30
2024-03-13T09:56:02.769Z,8.70
2024-03-13T10:16:02.389Z,8.40
2024-03-13T10:26:02.500Z,8.60
2024-03-13T10:36:04.023Z,9.30
2024-03-13T11:26:02.462Z,7.30
2024-03-13T14:26:02.491Z,12.60
2024-03-13T14:36:02.505Z,13.10
2024-03-13T14:46:02.501Z,13.10
2024-03-13T14:56:02.527Z,11.70
2024-03-13T16:16:02.536Z,11.30
2024-03-13T16:26:02.521Z,11.90
2024-03-13T16:36:02.561Z,10.10
2024-03-13T16:46:02.601Z,9.10
2024-03-13T17:26:02.564Z,8.70
2024-03-13T17:36:02.613Z,9.50
2024-03-13T17:46:02.567Z,9.60
2024-03-13T17:56:02.563Z,11.10
2024-03-13T18:06:02.634Z,11.80
2024-03-13T18:16:02.609Z,12.30
2024-03-13T18:26:02.588Z,13.20
2024-03-13T18:36:02.651Z,14.30
2024-03-13T18:46:02.628Z,16.10
2024-03-13T18:56:02.608Z,15.50
2024-03-13T19:06:02.645Z,14.50
2024-03-13T19:16:02.621Z,13.90
2024-03-13T19:26:02.828Z,14.60
2024-03-13T19:46:02.610Z,16.20
2024-03-13T19:56:02.616Z,12.80
2024-03-13T20:06:02.665Z,16.50
2024-03-13T20:16:02.770Z,16.40
2024-03-13T20:36:02.954Z,15.20
2024-03-13T20:46:02.758Z,17.40
2024-03-13T20:56:02.790Z,29.10
2024-03-13T21:06:02.675Z,32.20
2024-03-13T21:26:02.674Z,31.60
2024-03-13T21:36:02.742Z,31.50
2024-03-13T21:46:02.665Z,32.60
2024-03-13T21:56:02.685Z,36.10
2024-03-13T22:06:02.705Z,34.10
2024-03-13T22:16:02.649Z,34.30
2024-03-13T22:36:02.820Z,35.60
2024-03-13T22:46:02.721Z,33.70
2024-03-13T22:56:02.676Z,35.40
2024-03-13T23:06:02.712Z,33.60
2024-03-13T23:16:02.680Z,36.20
2024-03-13T23:26:02.689Z,35.00
2024-03-13T23:36:02.705Z,34.20
2024-03-13T23:46:02.805Z,32.30
2024-03-13T23:56:02.688Z,32.90
